sensor_id;sensor_type;location;lat;lon;timestamp;pressure;altitude;pressure_sealevel;temperature;humidity
21182;BME280;10749;46.296;7.524;2023-08-06T00:00:47;94421.94;;;20.58;39.11
21182;BME280;10749;46.296;7.524;2023-08-06T00:03:12;94431.03;;;20.57;39.43
21182;BME280;10749;46.296;7.524;2023-08-06T00:05:41;94431.66;;;20.64;38.42
21182;BME280;10749;46.296;7.524;2023-08-06T00:08:06;94423.66;;;20.69;38.56
21182;BME280;10749;46.296;7.524;2023-08-06T00:10:32;94416.41;;;20.69;38.58
21182;BME280;10749;46.296;7.524;2023-08-06T00:12:57;94427.97;;;20.70;37.73
21182;BME280;10749;46.296;7.524;2023-08-06T00:15:22;94417.78;;;20.72;38.13
21182;BME280;10749;46.296;7.524;2023-08-06T00:17:48;94398.59;;;20.63;38.99
21182;BME280;10749;46.296;7.524;2023-08-06T00:20:13;94396.25;;;20.72;38.60
21182;BME280;10749;46.296;7.524;2023-08-06T00:22:38;94401.13;;;20.75;39.21
21182;BME280;10749;46.296;7.524;2023-08-06T00:25:05;94390.88;;;20.72;38.75
21182;BME280;10749;46.296;7.524;2023-08-06T00:27:30;94384.69;;;20.71;38.46
21182;BME280;10749;46.296;7.524;2023-08-06T00:29:57;94387.59;;;20.65;38.37
21182;BME280;10749;46.296;7.524;2023-08-06T00:32:22;94392.03;;;20.54;38.36
21182;BME280;10749;46.296;7.524;2023-08-06T00:34:48;94394.91;;;20.48;38.97
21182;BME280;10749;46.296;7.524;2023-08-06T00:37:15;94399.59;;;20.36;38.45
21182;BME280;10749;46.296;7.524;2023-08-06T00:39:41;94399.03;;;20.34;38.55
21182;BME280;10749;46.296;7.524;2023-08-06T00:42:06;94391.78;;;20.34;39.06
21182;BME280;10749;46.296;7.524;2023-08-06T00:44:32;94387.34;;;20.45;39.32
21182;BME280;10749;46.296;7.524;2023-08-06T00:46:57;94387.91;;;20.47;39.62
21182;BME280;10749;46.296;7.524;2023-08-06T00:49:22;94393.84;;;20.49;39.48
21182;BME280;10749;46.296;7.524;2023-08-06T00:51:48;94395.53;;;20.55;39.67
21182;BME280;10749;46.296;7.524;2023-08-06T00:54:14;94393.59;;;20.50;39.90
21182;BME280;10749;46.296;7.524;2023-08-06T00:56:41;94387.72;;;20.53;39.70
21182;BME280;10749;46.296;7.524;2023-08-06T00:59:07;94392.81;;;20.50;40.05
21182;BME280;10749;46.296;7.524;2023-08-06T01:01:33;94385.72;;;20.44;39.53
21182;BME280;10749;46.296;7.524;2023-08-06T01:03:59;94382.84;;;20.28;38.63
21182;BME280;10749;46.296;7.524;2023-08-06T01:06:37;94386.44;;;20.17;38.90
21182;BME280;10749;46.296;7.524;2023-08-06T01:09:15;94389.50;;;20.04;38.38
21182;BME280;10749;46.296;7.524;2023-08-06T01:14:40;94389.69;;;19.98;39.04
21182;BME280;10749;46.296;7.524;2023-08-06T01:17:12;94394.75;;;19.94;40.38
21182;BME280;10749;46.296;7.524;2023-08-06T01:19:37;94393.19;;;19.98;40.69
21182;BME280;10749;46.296;7.524;2023-08-06T01:22:03;94393.41;;;19.97;40.34
21182;BME280;10749;46.296;7.524;2023-08-06T01:24:28;94389.22;;;19.84;40.28
21182;BME280;10749;46.296;7.524;2023-08-06T01:27:11;94376.16;;;19.71;40.82
21182;BME280;10749;46.296;7.524;2023-08-06T01:29:47;94380.34;;;19.83;40.52
21182;BME280;10749;46.296;7.524;2023-08-06T01:32:14;94364.38;;;19.94;40.88
21182;BME280;10749;46.296;7.524;2023-08-06T01:34:43;94374.22;;;19.88;40.99
21182;BME280;10749;46.296;7.524;2023-08-06T01:37:10;94374.81;;;19.90;41.31
21182;BME280;10749;46.296;7.524;2023-08-06T01:39:36;94374.81;;;19.90;40.69
21182;BME280;10749;46.296;7.524;2023-08-06T01:42:01;94377.03;;;19.76;40.55
21182;BME280;10749;46.296;7.524;2023-08-06T01:44:27;94369.59;;;19.62;40.66
21182;BME280;10749;46.296;7.524;2023-08-06T01:46:52;94375.28;;;19.65;41.16
21182;BME280;10749;46.296;7.524;2023-08-06T01:49:17;94378.84;;;19.71;41.11
21182;BME280;10749;46.296;7.524;2023-08-06T01:51:43;94384.84;;;19.78;40.97
21182;BME280;10749;46.296;7.524;2023-08-06T01:54:08;94391.78;;;19.74;41.32
21182;BME280;10749;46.296;7.524;2023-08-06T01:56:33;94382.66;;;19.75;41.53
21182;BME280;10749;46.296;7.524;2023-08-06T01:58:59;94379.97;;;19.75;41.40
21182;BME280;10749;46.296;7.524;2023-08-06T02:01:24;94367.63;;;19.74;41.67
21182;BME280;10749;46.296;7.524;2023-08-06T02:03:49;94372.97;;;19.74;41.43
21182;BME280;10749;46.296;7.524;2023-08-06T02:06:15;94377.13;;;19.81;41.45
21182;BME280;10749;46.296;7.524;2023-08-06T02:08:40;94364.22;;;19.83;41.31
21182;BME280;10749;46.296;7.524;2023-08-06T02:11:05;94366.88;;;19.78;41.77
21182;BME280;10749;46.296;7.524;2023-08-06T02:13:30;94364.09;;;19.73;41.76
21182;BME280;10749;46.296;7.524;2023-08-06T02:15:56;94357.94;;;19.73;41.82
21182;BME280;10749;46.296;7.524;2023-08-06T02:18:21;94364.66;;;19.75;41.37
21182;BME280;10749;46.296;7.524;2023-08-06T02:20:57;94352.63;;;19.78;41.40
21182;BME280;10749;46.296;7.524;2023-08-06T02:23:23;94349.88;;;19.73;41.31
21182;BME280;10749;46.296;7.524;2023-08-06T02:25:48;94354.25;;;19.79;41.43
21182;BME280;10749;46.296;7.524;2023-08-06T02:28:13;94357.34;;;19.88;41.25
21182;BME280;10749;46.296;7.524;2023-08-06T02:30:39;94354.69;;;19.93;41.15
21182;BME280;10749;46.296;7.524;2023-08-06T02:33:04;94350.66;;;19.90;41.00
21182;BME280;10749;46.296;7.524;2023-08-06T02:35:29;94346.91;;;19.91;41.21
21182;BME280;10749;46.296;7.524;2023-08-06T02:37:54;94339.31;;;19.88;41.23
21182;BME280;10749;46.296;7.524;2023-08-06T02:40:20;94344.25;;;19.96;41.21
21182;BME280;10749;46.296;7.524;2023-08-06T02:42:45;94344.78;;;19.93;41.36
21182;BME280;10749;46.296;7.524;2023-08-06T02:45:10;94335.03;;;19.87;41.37
21182;BME280;10749;46.296;7.524;2023-08-06T02:47:35;94330.09;;;19.79;41.22
21182;BME280;10749;46.296;7.524;2023-08-06T02:50:01;94341.75;;;19.68;41.34
21182;BME280;10749;46.296;7.524;2023-08-06T02:52:26;94351.84;;;19.61;41.74
21182;BME280;10749;46.296;7.524;2023-08-06T02:54:51;94354.22;;;19.57;41.98
21182;BME280;10749;46.296;7.524;2023-08-06T02:57:17;94346.47;;;19.61;41.32
21182;BME280;10749;46.296;7.524;2023-08-06T02:59:42;94340.81;;;19.57;41.83
21182;BME280;10749;46.296;7.524;2023-08-06T03:02:07;94346.41;;;19.56;41.61
21182;BME280;10749;46.296;7.524;2023-08-06T03:04:32;94345.34;;;19.57;41.65
21182;BME280;10749;46.296;7.524;2023-08-06T03:06:58;94344.78;;;19.55;41.55
21182;BME280;10749;46.296;7.524;2023-08-06T03:09:23;94340.16;;;19.50;41.83
21182;BME280;10749;46.296;7.524;2023-08-06T03:11:48;94333.31;;;19.43;42.02
21182;BME280;10749;46.296;7.524;2023-08-06T03:14:13;94335.94;;;19.38;41.99
21182;BME280;10749;46.296;7.524;2023-08-06T03:16:39;94334.28;;;19.36;41.86
21182;BME280;10749;46.296;7.524;2023-08-06T03:19:04;94334.13;;;19.43;42.21
21182;BME280;10749;46.296;7.524;2023-08-06T03:21:29;94326.78;;;19.38;42.11
21182;BME280;10749;46.296;7.524;2023-08-06T03:23:55;94323.06;;;19.40;42.00
21182;BME280;10749;46.296;7.524;2023-08-06T03:26:20;94325.84;;;19.45;41.59
21182;BME280;10749;46.296;7.524;2023-08-06T03:28:45;94332.75;;;19.41;41.49
21182;BME280;10749;46.296;7.524;2023-08-06T03:31:10;94343.59;;;19.46;41.99
21182;BME280;10749;46.296;7.524;2023-08-06T03:33:36;94354.78;;;19.43;42.16
21182;BME280;10749;46.296;7.524;2023-08-06T03:36:01;94343.59;;;19.46;41.57
21182;BME280;10749;46.296;7.524;2023-08-06T03:38:27;94348.97;;;19.46;41.34
21182;BME280;10749;46.296;7.524;2023-08-06T03:40:53;94345.09;;;19.42;41.03
21182;BME280;10749;46.296;7.524;2023-08-06T03:43:18;94345.75;;;19.32;40.50
21182;BME280;10749;46.296;7.524;2023-08-06T03:45:43;94356.72;;;19.30;40.29
21182;BME280;10749;46.296;7.524;2023-08-06T03:48:09;94363.22;;;19.34;40.42
21182;BME280;10749;46.296;7.524;2023-08-06T03:50:34;94354.44;;;19.39;40.33
21182;BME280;10749;46.296;7.524;2023-08-06T03:53:00;94358.06;;;19.45;40.12
21182;BME280;10749;46.296;7.524;2023-08-06T03:55:25;94368.56;;;19.46;39.78
21182;BME280;10749;46.296;7.524;2023-08-06T03:57:51;94373.66;;;19.48;39.90
21182;BME280;10749;46.296;7.524;2023-08-06T04:00:16;94378.47;;;19.46;39.23
21182;BME280;10749;46.296;7.524;2023-08-06T04:02:42;94385.00;;;19.38;39.08
21182;BME280;10749;46.296;7.524;2023-08-06T04:05:07;94391.06;;;19.45;39.52
21182;BME280;10749;46.296;7.524;2023-08-06T04:07:33;94395.44;;;19.51;39.69
21182;BME280;10749;46.296;7.524;2023-08-06T04:10:00;94400.91;;;19.56;39.59
21182;BME280;10749;46.296;7.524;2023-08-06T04:12:26;94393.03;;;19.50;39.65
21182;BME280;10749;46.296;7.524;2023-08-06T04:14:52;94393.84;;;19.50;39.83
21182;BME280;10749;46.296;7.524;2023-08-06T04:17:18;94394.63;;;19.51;40.11
21182;BME280;10749;46.296;7.524;2023-08-06T04:19:48;94395.72;;;19.50;40.17
21182;BME280;10749;46.296;7.524;2023-08-06T04:22:14;94390.25;;;19.45;40.34
21182;BME280;10749;46.296;7.524;2023-08-06T04:24:39;94396.56;;;19.38;40.43
21182;BME280;10749;46.296;7.524;2023-08-06T04:27:05;94385.81;;;19.38;40.29
21182;BME280;10749;46.296;7.524;2023-08-06T04:29:30;94389.91;;;19.24;40.43
21182;BME280;10749;46.296;7.524;2023-08-06T04:31:55;94390.88;;;19.18;40.39
21182;BME280;10749;46.296;7.524;2023-08-06T04:34:21;94385.03;;;19.21;40.11
21182;BME280;10749;46.296;7.524;2023-08-06T04:36:46;94393.47;;;19.13;40.05
21182;BME280;10749;46.296;7.524;2023-08-06T04:39:11;94388.50;;;19.05;39.75
21182;BME280;10749;46.296;7.524;2023-08-06T04:41:36;94394.53;;;18.96;39.97
21182;BME280;10749;46.296;7.524;2023-08-06T04:44:02;94385.47;;;18.85;39.90
21182;BME280;10749;46.296;7.524;2023-08-06T04:46:28;94383.38;;;18.87;39.65
21182;BME280;10749;46.296;7.524;2023-08-06T04:48:53;94393.69;;;18.95;39.32
21182;BME280;10749;46.296;7.524;2023-08-06T04:51:19;94397.66;;;18.92;39.21
21182;BME280;10749;46.296;7.524;2023-08-06T04:53:44;94393.31;;;19.03;39.58
21182;BME280;10749;46.296;7.524;2023-08-06T04:56:09;94398.75;;;19.08;39.35
21182;BME280;10749;46.296;7.524;2023-08-06T04:58:35;94393.94;;;19.10;39.16
21182;BME280;10749;46.296;7.524;2023-08-06T05:01:00;94407.28;;;19.22;39.29
21182;BME280;10749;46.296;7.524;2023-08-06T05:03:25;94409.19;;;19.21;39.15
21182;BME280;10749;46.296;7.524;2023-08-06T05:05:50;94405.69;;;19.21;39.35
21182;BME280;10749;46.296;7.524;2023-08-06T05:08:16;94407.16;;;19.28;38.96
21182;BME280;10749;46.296;7.524;2023-08-06T05:10:44;94415.75;;;19.30;39.38
21182;BME280;10749;46.296;7.524;2023-08-06T05:13:10;94410.31;;;19.25;39.29
21182;BME280;10749;46.296;7.524;2023-08-06T05:15:35;94404.88;;;19.20;39.21
21182;BME280;10749;46.296;7.524;2023-08-06T05:18:00;94407.22;;;19.33;39.65
21182;BME280;10749;46.296;7.524;2023-08-06T05:20:26;94397.63;;;19.38;39.34
21182;BME280;10749;46.296;7.524;2023-08-06T05:22:51;94392.50;;;19.36;39.16
21182;BME280;10749;46.296;7.524;2023-08-06T05:25:16;94392.81;;;19.40;39.09
21182;BME280;10749;46.296;7.524;2023-08-06T05:27:42;94399.81;;;19.41;39.25
21182;BME280;10749;46.296;7.524;2023-08-06T05:30:08;94392.59;;;19.41;39.36
21182;BME280;10749;46.296;7.524;2023-08-06T05:32:33;94396.31;;;19.40;39.30
21182;BME280;10749;46.296;7.524;2023-08-06T05:34:58;94400.50;;;19.48;39.10
21182;BME280;10749;46.296;7.524;2023-08-06T05:37:24;94408.53;;;19.48;38.96
21182;BME280;10749;46.296;7.524;2023-08-06T05:39:49;94408.28;;;19.32;39.42
21182;BME280;10749;46.296;7.524;2023-08-06T05:42:14;94397.22;;;19.29;39.33
21182;BME280;10749;46.296;7.524;2023-08-06T05:44:40;94397.88;;;19.36;39.46
21182;BME280;10749;46.296;7.524;2023-08-06T05:47:05;94403.91;;;19.43;39.76
21182;BME280;10749;46.296;7.524;2023-08-06T05:49:30;94415.78;;;19.47;39.51
21182;BME280;10749;46.296;7.524;2023-08-06T05:51:55;94411.50;;;19.46;39.91
21182;BME280;10749;46.296;7.524;2023-08-06T05:54:21;94418.22;;;19.49;39.46
21182;BME280;10749;46.296;7.524;2023-08-06T05:56:46;94424.09;;;19.46;39.65
21182;BME280;10749;46.296;7.524;2023-08-06T05:59:12;94439.19;;;19.52;39.48
21182;BME280;10749;46.296;7.524;2023-08-06T06:01:37;94440.19;;;19.46;39.80
21182;BME280;10749;46.296;7.524;2023-08-06T06:04:02;94451.41;;;19.43;39.60
21182;BME280;10749;46.296;7.524;2023-08-06T06:06:28;94457.94;;;19.35;39.45
21182;BME280;10749;46.296;7.524;2023-08-06T06:08:53;94457.47;;;19.21;39.68
21182;BME280;10749;46.296;7.524;2023-08-06T06:11:19;94465.97;;;19.18;39.65
21182;BME280;10749;46.296;7.524;2023-08-06T06:13:47;94474.91;;;19.07;39.49
21182;BME280;10749;46.296;7.524;2023-08-06T06:16:12;94469.53;;;19.07;39.65
21182;BME280;10749;46.296;7.524;2023-08-06T06:18:37;94477.69;;;19.12;39.38
21182;BME280;10749;46.296;7.524;2023-08-06T06:21:03;94477.50;;;19.02;39.88
21182;BME280;10749;46.296;7.524;2023-08-06T06:23:28;94482.53;;;18.99;39.63
21182;BME280;10749;46.296;7.524;2023-08-06T06:25:53;94497.78;;;18.98;39.78
21182;BME280;10749;46.296;7.524;2023-08-06T06:28:19;94497.41;;;19.06;39.76
21182;BME280;10749;46.296;7.524;2023-08-06T06:30:44;94501.81;;;19.12;39.74
21182;BME280;10749;46.296;7.524;2023-08-06T06:33:10;94500.38;;;18.93;40.46
21182;BME280;10749;46.296;7.524;2023-08-06T06:35:35;94487.84;;;18.82;40.54
21182;BME280;10749;46.296;7.524;2023-08-06T06:38:00;94501.72;;;18.79;40.15
21182;BME280;10749;46.296;7.524;2023-08-06T06:40:26;94509.66;;;18.74;40.60
21182;BME280;10749;46.296;7.524;2023-08-06T06:42:52;94506.63;;;18.70;40.95
21182;BME280;10749;46.296;7.524;2023-08-06T06:45:17;94506.31;;;18.67;41.16
21182;BME280;10749;46.296;7.524;2023-08-06T06:47:42;94505.59;;;18.60;41.49
21182;BME280;10749;46.296;7.524;2023-08-06T06:50:08;94509.59;;;18.57;41.58
21182;BME280;10749;46.296;7.524;2023-08-06T06:52:34;94505.38;;;18.61;40.76
21182;BME280;10749;46.296;7.524;2023-08-06T06:55:00;94503.50;;;18.62;41.03
21182;BME280;10749;46.296;7.524;2023-08-06T06:57:25;94514.00;;;18.63;41.37
21182;BME280;10749;46.296;7.524;2023-08-06T06:59:50;94506.63;;;18.70;40.95
21182;BME280;10749;46.296;7.524;2023-08-06T07:02:16;94504.41;;;18.79;40.99
21182;BME280;10749;46.296;7.524;2023-08-06T07:04:41;94512.44;;;18.79;40.97
21182;BME280;10749;46.296;7.524;2023-08-06T07:07:06;94502.88;;;18.83;41.33
21182;BME280;10749;46.296;7.524;2023-08-06T07:09:31;94505.72;;;18.93;41.22
21182;BME280;10749;46.296;7.524;2023-08-06T07:11:58;94502.59;;;18.96;41.36
21182;BME280;10749;46.296;7.524;2023-08-06T07:14:25;94515.03;;;19.02;41.31
21182;BME280;10749;46.296;7.524;2023-08-06T07:16:51;94516.28;;;19.11;41.54
21182;BME280;10749;46.296;7.524;2023-08-06T07:19:16;94510.03;;;19.22;41.01
21182;BME280;10749;46.296;7.524;2023-08-06T07:21:41;94504.22;;;19.25;41.13
21182;BME280;10749;46.296;7.524;2023-08-06T07:24:07;94505.38;;;19.29;41.11
21182;BME280;10749;46.296;7.524;2023-08-06T07:26:32;94523.56;;;19.56;41.13
21182;BME280;10749;46.296;7.524;2023-08-06T07:28:57;94524.47;;;19.78;41.00
21182;BME280;10749;46.296;7.524;2023-08-06T07:31:22;94517.56;;;19.82;40.89
21182;BME280;10749;46.296;7.524;2023-08-06T07:33:48;94520.78;;;19.84;40.81
21182;BME280;10749;46.296;7.524;2023-08-06T07:36:14;94523.47;;;19.84;40.89
21182;BME280;10749;46.296;7.524;2023-08-06T07:38:40;94523.00;;;19.70;40.56
21182;BME280;10749;46.296;7.524;2023-08-06T07:41:06;94527.16;;;19.78;40.81
21182;BME280;10749;46.296;7.524;2023-08-06T07:43:32;94531.94;;;19.76;40.75
21182;BME280;10749;46.296;7.524;2023-08-06T07:45:58;94534.94;;;19.96;40.62
21182;BME280;10749;46.296;7.524;2023-08-06T07:48:25;94532.44;;;20.06;40.47
21182;BME280;10749;46.296;7.524;2023-08-06T07:50:54;94541.53;;;20.05;40.37
21182;BME280;10749;46.296;7.524;2023-08-06T07:53:21;94543.19;;;20.06;40.58
21182;BME280;10749;46.296;7.524;2023-08-06T07:55:53;94556.50;;;20.18;40.14
21182;BME280;10749;46.296;7.524;2023-08-06T07:58:20;94552.59;;;20.09;40.03
21182;BME280;10749;46.296;7.524;2023-08-06T08:00:46;94560.66;;;19.92;39.81
21182;BME280;10749;46.296;7.524;2023-08-06T08:03:15;94567.13;;;19.91;40.04
21182;BME280;10749;46.296;7.524;2023-08-06T08:05:42;94563.84;;;19.89;39.73
21182;BME280;10749;46.296;7.524;2023-08-06T08:08:07;94563.94;;;19.94;40.05
21182;BME280;10749;46.296;7.524;2023-08-06T08:10:33;94573.78;;;19.89;39.60
21182;BME280;10749;46.296;7.524;2023-08-06T08:13:02;94560.53;;;19.82;39.67
21182;BME280;10749;46.296;7.524;2023-08-06T08:15:29;94562.22;;;19.88;39.64
21182;BME280;10749;46.296;7.524;2023-08-06T08:17:55;94558.06;;;19.97;39.50
21182;BME280;10749;46.296;7.524;2023-08-06T08:20:20;94556.84;;;20.21;39.98
21182;BME280;10749;46.296;7.524;2023-08-06T08:22:46;94558.34;;;20.29;39.34
21182;BME280;10749;46.296;7.524;2023-08-06T08:25:11;94565.50;;;20.40;39.37
21182;BME280;10749;46.296;7.524;2023-08-06T08:27:37;94573.44;;;20.52;39.49
21182;BME280;10749;46.296;7.524;2023-08-06T08:30:02;94562.78;;;20.57;39.40
21182;BME280;10749;46.296;7.524;2023-08-06T08:32:27;94546.06;;;20.55;38.67
21182;BME280;10749;46.296;7.524;2023-08-06T08:34:53;94564.84;;;20.50;39.08
21182;BME280;10749;46.296;7.524;2023-08-06T08:37:18;94562.19;;;20.55;38.73
21182;BME280;10749;46.296;7.524;2023-08-06T08:39:44;94568.50;;;20.44;39.13
21182;BME280;10749;46.296;7.524;2023-08-06T08:42:10;94584.84;;;20.42;38.68
21182;BME280;10749;46.296;7.524;2023-08-06T08:44:35;94578.84;;;20.18;38.69
21182;BME280;10749;46.296;7.524;2023-08-06T08:47:05;94574.09;;;20.25;38.46
21182;BME280;10749;46.296;7.524;2023-08-06T08:49:31;94573.47;;;20.18;38.52
21182;BME280;10749;46.296;7.524;2023-08-06T08:51:58;94572.97;;;20.21;38.58
21182;BME280;10749;46.296;7.524;2023-08-06T08:54:25;94577.28;;;20.22;37.97
21182;BME280;10749;46.296;7.524;2023-08-06T08:56:51;94577.78;;;20.19;37.82
21182;BME280;10749;46.296;7.524;2023-08-06T08:59:16;94589.03;;;20.16;38.21
21182;BME280;10749;46.296;7.524;2023-08-06T09:01:42;94584.84;;;20.25;38.13
21182;BME280;10749;46.296;7.524;2023-08-06T09:04:09;94575.44;;;20.40;37.62
21182;BME280;10749;46.296;7.524;2023-08-06T09:06:37;94574.03;;;20.54;37.89
21182;BME280;10749;46.296;7.524;2023-08-06T09:09:10;94588.75;;;20.51;37.59
21182;BME280;10749;46.296;7.524;2023-08-06T09:11:43;94593.25;;;20.46;37.13
21182;BME280;10749;46.296;7.524;2023-08-06T09:14:09;94582.50;;;20.46;36.96
21182;BME280;10749;46.296;7.524;2023-08-06T09:16:35;94576.38;;;20.50;36.65
21182;BME280;10749;46.296;7.524;2023-08-06T09:19:07;94571.53;;;20.69;37.09
21182;BME280;10749;46.296;7.524;2023-08-06T09:21:32;94576.22;;;20.95;36.55
21182;BME280;10749;46.296;7.524;2023-08-06T09:24:01;94569.50;;;20.98;36.97
21182;BME280;10749;46.296;7.524;2023-08-06T09:26:33;94586.56;;;21.08;36.13
21182;BME280;10749;46.296;7.524;2023-08-06T09:28:59;94575.25;;;21.06;36.33
21182;BME280;10749;46.296;7.524;2023-08-06T09:31:24;94571.56;;;20.91;35.28
21182;BME280;10749;46.296;7.524;2023-08-06T09:33:50;94585.41;;;20.99;35.41
21182;BME280;10749;46.296;7.524;2023-08-06T09:36:15;94574.50;;;20.89;35.47
21182;BME280;10749;46.296;7.524;2023-08-06T09:38:41;94593.22;;;21.01;34.54
21182;BME280;10749;46.296;7.524;2023-08-06T09:41:06;94585.06;;;20.96;34.41
21182;BME280;10749;46.296;7.524;2023-08-06T09:43:58;94586.31;;;21.10;34.63
21182;BME280;10749;46.296;7.524;2023-08-06T09:46:24;94592.66;;;21.21;35.13
21182;BME280;10749;46.296;7.524;2023-08-06T09:48:50;94599.91;;;21.42;34.93
21182;BME280;10749;46.296;7.524;2023-08-06T09:51:16;94597.13;;;21.32;34.52
21182;BME280;10749;46.296;7.524;2023-08-06T09:53:42;94591.41;;;21.06;34.46
21182;BME280;10749;46.296;7.524;2023-08-06T09:56:08;94601.00;;;21.19;34.43
21182;BME280;10749;46.296;7.524;2023-08-06T09:58:34;94594.91;;;21.07;34.01
21182;BME280;10749;46.296;7.524;2023-08-06T10:01:01;94613.72;;;21.24;34.27
21182;BME280;10749;46.296;7.524;2023-08-06T10:03:28;94615.00;;;21.21;34.34
21182;BME280;10749;46.296;7.524;2023-08-06T10:05:55;94620.66;;;21.20;34.29
21182;BME280;10749;46.296;7.524;2023-08-06T10:08:21;94613.56;;;21.13;34.38
21182;BME280;10749;46.296;7.524;2023-08-06T10:10:47;94607.13;;;21.14;34.04
21182;BME280;10749;46.296;7.524;2023-08-06T10:13:13;94605.56;;;21.18;34.23
21182;BME280;10749;46.296;7.524;2023-08-06T10:15:39;94614.84;;;21.28;34.33
21182;BME280;10749;46.296;7.524;2023-08-06T10:18:06;94606.19;;;21.26;34.17
21182;BME280;10749;46.296;7.524;2023-08-06T10:20:35;94607.75;;;21.43;34.19
21182;BME280;10749;46.296;7.524;2023-08-06T10:23:05;94601.47;;;21.59;34.08
21182;BME280;10749;46.296;7.524;2023-08-06T10:25:35;94604.00;;;21.71;34.19
21182;BME280;10749;46.296;7.524;2023-08-06T10:28:11;94611.53;;;21.69;33.56
21182;BME280;10749;46.296;7.524;2023-08-06T10:30:43;94599.22;;;21.78;33.33
21182;BME280;10749;46.296;7.524;2023-08-06T10:33:09;94612.66;;;21.73;33.43
21182;BME280;10749;46.296;7.524;2023-08-06T10:35:44;94604.31;;;21.48;32.95
21182;BME280;10749;46.296;7.524;2023-08-06T10:40:47;94600.94;;;21.62;33.36
21182;BME280;10749;46.296;7.524;2023-08-06T10:43:34;94620.47;;;21.75;33.12
21182;BME280;10749;46.296;7.524;2023-08-06T10:46:04;94616.56;;;21.60;32.34
21182;BME280;10749;46.296;7.524;2023-08-06T10:48:38;94617.31;;;21.56;32.79
21182;BME280;10749;46.296;7.524;2023-08-06T10:51:11;94614.78;;;21.71;32.06
21182;BME280;10749;46.296;7.524;2023-08-06T10:53:42;94624.47;;;21.94;32.50
21182;BME280;10749;46.296;7.524;2023-08-06T10:56:17;94634.91;;;21.90;31.64
21182;BME280;10749;46.296;7.524;2023-08-06T10:58:44;94619.03;;;21.67;30.95
21182;BME280;10749;46.296;7.524;2023-08-06T11:01:10;94631.06;;;21.81;31.51
21182;BME280;10749;46.296;7.524;2023-08-06T11:03:37;94624.84;;;21.81;31.08
21182;BME280;10749;46.296;7.524;2023-08-06T11:06:03;94618.31;;;21.98;31.63
21182;BME280;10749;46.296;7.524;2023-08-06T11:08:32;94629.66;;;22.00;32.17
21182;BME280;10749;46.296;7.524;2023-08-06T11:11:08;94624.25;;;22.00;31.57
21182;BME280;10749;46.296;7.524;2023-08-06T11:13:35;94630.25;;;22.07;31.62
21182;BME280;10749;46.296;7.524;2023-08-06T11:16:01;94616.41;;;21.99;31.38
21182;BME280;10749;46.296;7.524;2023-08-06T11:18:26;94631.09;;;22.13;31.34
21182;BME280;10749;46.296;7.524;2023-08-06T11:20:51;94626.59;;;22.19;31.29
21182;BME280;10749;46.296;7.524;2023-08-06T11:23:17;94614.69;;;22.15;30.92
21182;BME280;10749;46.296;7.524;2023-08-06T11:25:46;94614.34;;;22.38;31.08
21182;BME280;10749;46.296;7.524;2023-08-06T11:28:12;94591.88;;;22.64;30.82
21182;BME280;10749;46.296;7.524;2023-08-06T11:30:38;94609.63;;;22.55;30.50
21182;BME280;10749;46.296;7.524;2023-08-06T11:33:03;94607.66;;;22.82;30.50
21182;BME280;10749;46.296;7.524;2023-08-06T11:35:28;94624.00;;;23.08;30.69
21182;BME280;10749;46.296;7.524;2023-08-06T11:37:54;94634.66;;;22.87;29.06
21182;BME280;10749;46.296;7.524;2023-08-06T11:40:20;94613.94;;;22.24;28.79
21182;BME280;10749;46.296;7.524;2023-08-06T11:42:46;94596.31;;;22.12;29.09
21182;BME280;10749;46.296;7.524;2023-08-06T11:45:11;94610.47;;;22.24;29.80
21182;BME280;10749;46.296;7.524;2023-08-06T11:47:40;94603.16;;;22.56;29.97
21182;BME280;10749;46.296;7.524;2023-08-06T11:50:06;94599.84;;;22.49;29.11
21182;BME280;10749;46.296;7.524;2023-08-06T11:52:31;94600.94;;;22.53;29.41
21182;BME280;10749;46.296;7.524;2023-08-06T11:55:07;94622.09;;;22.66;29.30
21182;BME280;10749;46.296;7.524;2023-08-06T11:57:36;94600.16;;;22.52;29.40
21182;BME280;10749;46.296;7.524;2023-08-06T12:00:09;94613.28;;;22.76;29.63
21182;BME280;10749;46.296;7.524;2023-08-06T12:02:35;94603.41;;;22.91;29.18
21182;BME280;10749;46.296;7.524;2023-08-06T12:05:03;94615.09;;;23.12;28.39
21182;BME280;10749;46.296;7.524;2023-08-06T12:07:30;94603.31;;;23.28;29.00
21182;BME280;10749;46.296;7.524;2023-08-06T12:09:56;94610.25;;;23.09;27.91
21182;BME280;10749;46.296;7.524;2023-08-06T12:12:22;94625.06;;;23.02;29.16
21182;BME280;10749;46.296;7.524;2023-08-06T12:14:48;94628.16;;;22.83;29.41
21182;BME280;10749;46.296;7.524;2023-08-06T12:17:13;94629.00;;;22.84;29.54
21182;BME280;10749;46.296;7.524;2023-08-06T12:19:38;94633.94;;;22.60;29.16
21182;BME280;10749;46.296;7.524;2023-08-06T12:22:03;94623.56;;;22.47;29.31
21182;BME280;10749;46.296;7.524;2023-08-06T12:24:29;94633.84;;;22.50;29.55
21182;BME280;10749;46.296;7.524;2023-08-06T12:26:59;94642.69;;;22.72;29.55
21182;BME280;10749;46.296;7.524;2023-08-06T12:29:25;94637.38;;;22.87;28.96
21182;BME280;10749;46.296;7.524;2023-08-06T12:31:50;94649.84;;;22.98;29.08
21182;BME280;10749;46.296;7.524;2023-08-06T12:34:16;94659.25;;;22.91;28.67
21182;BME280;10749;46.296;7.524;2023-08-06T12:36:41;94640.94;;;22.61;28.43
21182;BME280;10749;46.296;7.524;2023-08-06T12:39:06;94642.22;;;22.85;29.00
21182;BME280;10749;46.296;7.524;2023-08-06T12:41:32;94647.25;;;23.14;28.27
21182;BME280;10749;46.296;7.524;2023-08-06T12:43:57;94627.28;;;23.15;28.84
21182;BME280;10749;46.296;7.524;2023-08-06T12:46:22;94649.03;;;22.93;29.00
21182;BME280;10749;46.296;7.524;2023-08-06T12:48:48;94656.41;;;22.71;28.68
21182;BME280;10749;46.296;7.524;2023-08-06T12:51:13;94640.72;;;22.31;28.93
21182;BME280;10749;46.296;7.524;2023-08-06T12:53:39;94641.72;;;22.25;29.26
21182;BME280;10749;46.296;7.524;2023-08-06T12:56:04;94641.31;;;22.38;29.41
21182;BME280;10749;46.296;7.524;2023-08-06T12:58:29;94639.19;;;22.40;29.02
21182;BME280;10749;46.296;7.524;2023-08-06T13:00:55;94631.28;;;22.65;28.86